Time;durP1;ratioP1;P1;durP2;ratioP2;P2;SDS_P1;SDS_P2;PMS_P1;PMS_P2;Temp;Humidity;BMP_temperature;BMP_pressure;BME280_temperature;BME280_humidity;BME280_pressure;Samples;Min_cycle;Max_cycle;Signal;HPM_P1;HPM_P2
2023/10/28 00:00:37;;;;;;;;;2.67;2.67;;;;;13.45;74.36;99238.00;5056203;28;46177;-69
2023/10/28 00:03:06;;;;;;;;;4.67;3.33;;;;;13.49;74.07;99252.59;5055706;28;45442;-69
2023/10/28 00:05:31;;;;;;;;;1.50;0.75;;;;;13.41;74.20;99236.72;5056053;28;45486;-69
2023/10/28 00:07:57;;;;;;;;;5.33;2.67;;;;;13.45;74.07;99235.31;5056794;28;45435;-69
2023/10/28 00:10:23;;;;;;;;;2.00;2.00;;;;;13.50;74.15;99256.91;5059220;28;47710;-68
2023/10/28 00:12:50;;;;;;;;;3.33;2.00;;;;;13.49;74.35;99247.25;5059101;28;45356;-68
2023/10/28 00:15:18;;;;;;;;;5.00;1.33;;;;;13.52;74.07;99235.34;5059520;28;45363;-68
2023/10/28 00:17:47;;;;;;;;;4.33;1.00;;;;;13.54;74.13;99234.13;5059395;28;45334;-68
2023/10/28 00:20:15;;;;;;;;;3.00;2.00;;;;;13.49;73.88;99231.22;5059221;28;47444;-68
2023/10/28 00:22:45;;;;;;;;;2.00;1.00;;;;;13.50;73.67;99224.88;5059011;28;45341;-69
2023/10/28 00:25:12;;;;;;;;;1.00;1.00;;;;;13.18;74.05;99177.50;5058988;28;45464;-69
2023/10/28 00:27:37;;;;;;;;;5.00;1.67;;;;;13.53;74.07;99234.31;5059341;28;45604;-70
2023/10/28 00:30:03;;;;;;;;;1.67;1.67;;;;;13.54;74.12;99236.78;5058722;28;46323;-68
2023/10/28 00:32:28;;;;;;;;;4.67;2.00;;;;;13.56;73.97;99218.72;5058939;28;45447;-68
2023/10/28 00:34:54;;;;;;;;;1.00;1.00;;;;;13.63;73.78;99224.91;5059162;28;45317;-68
2023/10/28 00:37:19;;;;;;;;;2.00;2.00;;;;;13.60;73.72;99219.97;5059348;28;45281;-70
2023/10/28 00:39:46;;;;;;;;;0.67;0.67;;;;;13.64;73.83;99226.56;5058931;28;46548;-69
2023/10/28 00:42:13;;;;;;;;;1.00;0.33;;;;;13.22;73.77;99160.09;5058631;28;45426;-69
2023/10/28 00:44:39;;;;;;;;;1.67;0.67;;;;;13.56;74.58;99223.22;5058801;28;45430;-69
2023/10/28 00:47:06;;;;;;;;;4.33;2.00;;;;;13.54;75.09;99211.94;5059002;28;45341;-69
2023/10/28 00:49:31;;;;;;;;;1.00;1.00;;;;;13.49;75.26;99206.38;5058800;28;45602;-70
2023/10/28 00:51:58;;;;;;;;;1.67;1.33;;;;;13.51;75.11;99210.50;5058680;28;45394;-69
2023/10/28 00:54:25;;;;;;;;;5.67;3.00;;;;;13.50;75.01;99200.84;5058781;28;45244;-70
2023/10/28 00:56:52;;;;;;;;;1.00;0.67;;;;;13.18;75.10;99162.31;5058788;28;45457;-69
2023/10/28 00:59:17;;;;;;;;;2.67;1.00;;;;;13.48;75.49;99205.56;5058853;28;46638;-68
2023/10/28 01:01:42;;;;;;;;;2.00;2.00;;;;;13.37;75.13;99190.09;5040571;28;45622;-69
2023/10/28 01:04:08;;;;;;;;;4.00;1.33;;;;;13.42;75.15;99206.38;5040381;28;45465;-69
2023/10/28 01:06:34;;;;;;;;;1.00;1.00;;;;;13.43;75.49;99208.00;5059113;28;45333;-70
2023/10/28 01:08:59;;;;;;;;;2.00;2.00;;;;;13.38;75.76;99200.56;5058393;28;47415;-71
2023/10/28 01:11:25;;;;;;;;;2.00;0.00;;;;;13.39;75.79;99212.91;5058180;28;45496;-70
2023/10/28 01:13:50;;;;;;;;;3.00;1.00;;;;;13.26;76.18;99185.34;5058661;28;45308;-71
2023/10/28 01:16:15;;;;;;;;;1.00;0.67;;;;;13.26;76.05;99177.34;5040630;28;45698;-72
2023/10/28 01:18:41;;;;;;;;;3.00;1.50;;;;;13.43;76.02;99199.19;5049704;28;46634;-70
2023/10/28 01:21:13;;;;;;;;;2.00;2.00;;;;;13.45;76.36;99192.63;5037431;28;45310;-71
2023/10/28 01:23:38;;;;;;;;;2.67;1.33;;;;;13.13;76.24;99140.72;5038309;28;45477;-71
2023/10/28 01:26:03;;;;;;;;;0.00;0.00;;;;;13.50;76.36;99198.16;5057057;28;45594;-69
2023/10/28 01:28:32;;;;;;;;;0.33;0.33;;;;;13.50;76.59;99187.47;5056420;28;46352;-71
2023/10/28 01:30:57;;;;;;;;;2.67;0.67;;;;;13.46;76.05;99188.91;5058068;28;45325;-71
2023/10/28 01:33:22;;;;;;;;;2.00;0.75;;;;;13.49;76.13;99185.84;5057019;28;45485;-71
2023/10/28 01:35:48;;;;;;;;;2.00;1.33;;;;;13.47;76.39;99171.88;5057344;28;45495;-71
2023/10/28 01:38:13;;;;;;;;;2.00;2.00;;;;;13.49;75.98;99174.34;5057226;28;46567;-70
2023/10/28 01:40:39;;;;;;;;;0.75;0.75;;;;;13.51;76.15;99172.28;5058158;28;45270;-70
2023/10/28 01:43:04;;;;;;;;;2.67;2.00;;;;;12.78;76.03;99055.41;5058140;28;45892;-71
2023/10/28 01:45:31;;;;;;;;;1.00;0.75;;;;;13.42;75.94;99152.16;5057245;28;45175;-70
2023/10/28 01:47:56;;;;;;;;;0.75;0.75;;;;;13.70;75.77;99177.69;5037842;28;46652;-69
2023/10/28 01:50:21;;;;;;;;;2.25;1.00;;;;;13.52;75.71;99142.72;5057729;28;45511;-69
2023/10/28 01:52:47;;;;;;;;;1.75;1.25;;;;;13.62;75.65;99164.53;5058135;28;45487;-69
2023/10/28 01:55:13;;;;;;;;;0.25;0.25;;;;;13.68;75.71;99185.06;5057837;28;45347;-69
2023/10/28 01:57:38;;;;;;;;;4.75;1.75;;;;;13.68;75.47;99190.41;5022967;28;48657;-69
2023/10/28 02:00:12;;;;;;;;;2.67;0.33;;;;;13.60;75.57;99169.22;5056498;28;45698;-69
2023/10/28 02:02:38;;;;;;;;;2.00;1.00;;;;;13.65;75.98;99180.13;5057880;28;45615;-69
2023/10/28 02:05:03;;;;;;;;;1.25;1.25;;;;;13.57;75.55;99172.28;5057638;28;45426;-69
2023/10/28 02:07:29;;;;;;;;;4.25;0.25;;;;;13.39;75.45;99140.00;5056561;28;46409;-69
2023/10/28 02:09:54;;;;;;;;;1.50;1.00;;;;;13.58;75.11;99168.59;5057729;28;45393;-68
2023/10/28 02:12:20;;;;;;;;;1.75;0.00;;;;;13.56;75.64;99167.16;5057654;28;45495;-70
2023/10/28 02:14:46;;;;;;;;;1.50;1.00;;;;;13.23;75.65;99121.72;5057757;28;45523;-70
2023/10/28 02:17:11;;;;;;;;;1.00;1.00;;;;;13.23;75.85;99124.38;5057429;28;46151;-69
2023/10/28 02:19:38;;;;;;;;;0.75;0.75;;;;;13.56;75.71;99165.31;5057635;28;45451;-68
2023/10/28 02:22:04;;;;;;;;;2.00;0.33;;;;;13.63;75.57;99171.50;5057574;28;45357;-70
2023/10/28 02:24:29;;;;;;;;;1.75;1.75;;;;;13.63;75.71;99168.03;5057679;28;45467;-69
2023/10/28 02:26:55;;;;;;;;;1.25;0.50;;;;;13.63;75.49;99160.84;5057001;28;46501;-69
2023/10/28 02:29:22;;;;;;;;;2.00;0.50;;;;;13.50;75.82;99150.09;5057573;28;45166;-69
2023/10/28 02:31:48;;;;;;;;;0.00;0.00;;;;;13.54;75.70;99156.69;5055328;28;45459;-69
2023/10/28 02:34:15;;;;;;;;;1.25;0.50;;;;;13.53;75.66;99152.38;5057566;28;45557;-69
2023/10/28 02:36:40;;;;;;;;;1.25;1.25;;;;;13.47;75.79;99139.84;5056970;28;47702;-70
2023/10/28 02:39:06;;;;;;;;;1.50;0.50;;;;;13.54;75.73;99146.00;5056905;28;45401;-69
2023/10/28 02:41:31;;;;;;;;;1.00;1.00;;;;;13.54;76.31;99159.34;5056822;28;45503;-69
2023/10/28 02:43:58;;;;;;;;;3.25;1.00;;;;;13.17;76.22;99079.75;5057265;28;45166;-69
2023/10/28 02:46:25;;;;;;;;;3.50;0.00;;;;;13.58;75.81;99147.25;5056966;28;46554;-69
2023/10/28 02:48:51;;;;;;;;;1.75;0.75;;;;;13.59;75.77;99148.06;5057202;28;45526;-68
2023/10/28 02:51:17;;;;;;;;;0.75;0.75;;;;;13.59;75.93;99142.72;5057212;28;45384;-70
2023/10/28 02:53:43;;;;;;;;;3.00;2.00;;;;;13.53;75.83;99133.69;5057187;28;45391;-67
2023/10/28 02:56:09;;;;;;;;;2.00;0.75;;;;;13.54;76.13;99138.00;5056826;28;45560;-70
2023/10/28 02:58:34;;;;;;;;;2.75;0.25;;;;;13.52;75.69;99140.03;5056718;28;45466;-70
2023/10/28 03:01:10;;;;;;;;;1.50;1.25;;;;;13.43;76.31;99116.44;5057097;28;45494;-69
2023/10/28 03:03:37;;;;;;;;;1.00;1.00;;;;;13.53;76.37;99123.00;5057278;28;45471;-70
2023/10/28 03:06:03;;;;;;;;;2.50;1.75;;;;;13.48;76.24;99106.78;5057098;28;46404;-69
2023/10/28 03:08:29;;;;;;;;;0.50;0.50;;;;;13.54;76.07;99116.63;5056791;28;45503;-70
2023/10/28 03:10:54;;;;;;;;;1.75;1.00;;;;;13.57;76.37;99126.91;5056798;28;49137;-71
2023/10/28 03:13:19;;;;;;;;;1.00;1.00;;;;;13.47;75.99;99123.81;5057094;28;45491;-69
2023/10/28 03:15:46;;;;;;;;;2.00;2.00;;;;;13.50;76.04;99139.44;5056671;28;46440;-70
2023/10/28 03:18:13;;;;;;;;;0.50;0.50;;;;;13.49;76.03;99156.47;5057053;28;45742;-69
2023/10/28 03:20:38;;;;;;;;;2.75;1.00;;;;;13.47;76.19;99155.84;5039084;28;45527;-68
2023/10/28 03:23:04;;;;;;;;;3.33;1.00;;;;;13.46;76.22;99169.41;5057183;28;45568;-69
2023/10/28 03:25:31;;;;;;;;;0.50;0.50;;;;;13.47;75.95;99166.53;5056444;28;46125;-68
2023/10/28 03:27:57;;;;;;;;;2.00;2.00;;;;;13.29;75.96;99136.91;5056176;28;45316;-69
2023/10/28 03:30:22;;;;;;;;;3.00;2.67;;;;;13.38;75.76;99157.88;5056856;28;45302;-68
2023/10/28 03:32:47;;;;;;;;;3.00;1.33;;;;;13.38;75.86;99157.88;5057235;28;45498;-69
2023/10/28 03:35:13;;;;;;;;;2.00;1.75;;;;;12.89;75.92;99080.72;5056530;28;46418;-69
2023/10/28 03:37:38;;;;;;;;;0.75;0.75;;;;;13.30;75.71;99154.56;5056828;28;45325;-69
2023/10/28 03:40:05;;;;;;;;;0.25;0.00;;;;;13.28;76.15;99159.28;5056624;28;45942;-69
2023/10/28 03:42:30;;;;;;;;;1.50;1.25;;;;;13.30;75.92;99157.25;5055502;28;45461;-69
2023/10/28 03:44:56;;;;;;;;;2.00;1.00;;;;;13.28;76.15;99153.94;5059068;28;55828;-70
2023/10/28 03:47:22;;;;;;;;;0.50;0.50;;;;;13.17;75.84;99141.13;5059650;28;46059;-69
2023/10/28 03:49:48;;;;;;;;;1.25;0.00;;;;;13.18;75.80;99145.47;5041825;28;45373;-68
2023/10/28 03:52:16;;;;;;;;;0.25;0.25;;;;;13.22;76.02;99146.75;5059652;28;45493;-70
2023/10/28 03:54:41;;;;;;;;;1.50;0.75;;;;;13.20;75.92;99167.44;5042252;28;47559;-71
2023/10/28 03:57:07;;;;;;;;;1.75;0.75;;;;;13.20;75.71;99154.09;5041469;28;45504;-69
2023/10/28 03:59:35;;;;;;;;;0.67;0.67;;;;;13.18;76.10;99177.50;5060142;28;45519;-70
2023/10/28 04:02:03;;;;;;;;;0.00;0.00;;;;;12.78;75.94;99107.94;5059869;28;45321;-68
2023/10/28 04:04:29;;;;;;;;;1.33;0.33;;;;;13.14;76.11;99161.03;5059326;28;45725;-69
2023/10/28 04:06:55;;;;;;;;;1.67;0.67;;;;;13.22;75.86;99178.78;5059563;28;45484;-70
2023/10/28 04:09:21;;;;;;;;;3.00;0.25;;;;;13.24;75.99;99176.72;5059907;28;45283;-69
2023/10/28 04:11:46;;;;;;;;;1.00;0.75;;;;;13.29;75.72;99182.28;5059625;28;45463;-69
2023/10/28 04:14:13;;;;;;;;;0.00;0.00;;;;;13.32;75.82;99182.69;5059424;28;46764;-69
2023/10/28 04:16:47;;;;;;;;;0.75;0.75;;;;;13.34;75.67;99183.31;5059417;28;45435;-69
2023/10/28 04:19:13;;;;;;;;;3.25;0.50;;;;;13.34;75.42;99185.16;5059625;28;45560;-69
2023/10/28 04:21:38;;;;;;;;;4.25;0.00;;;;;13.37;75.64;99203.44;5041528;28;45519;-71
2023/10/28 04:24:04;;;;;;;;;0.00;0.00;;;;;13.33;74.86;99186.19;5058486;28;46661;-68
2023/10/28 04:26:30;;;;;;;;;4.50;2.00;;;;;13.37;75.30;99195.44;5059325;28;45197;-68
2023/10/28 04:28:59;;;;;;;;;1.00;0.25;;;;;13.05;75.40;99151.56;5059640;28;45297;-68
2023/10/28 04:31:28;;;;;;;;;3.00;2.00;;;;;13.38;75.54;99199.75;5059758;28;45431;-69
2023/10/28 04:33:54;;;;;;;;;0.75;0.75;;;;;13.40;75.08;99189.69;5059122;28;46636;-69
2023/10/28 04:36:19;;;;;;;;;2.50;1.50;;;;;13.42;75.25;99192.19;5059145;28;45428;-69
2023/10/28 04:38:44;;;;;;;;;2.25;1.25;;;;;13.40;75.32;99192.38;5059124;28;45490;-69
2023/10/28 04:41:09;;;;;;;;;1.25;1.00;;;;;13.42;75.49;99195.69;5059482;28;45254;-68
2023/10/28 04:43:35;;;;;;;;;1.25;1.00;;;;;13.41;75.25;99196.69;5058970;28;46116;-68
2023/10/28 04:46:00;;;;;;;;;1.00;0.50;;;;;13.37;75.26;99203.44;5058968;28;45424;-69
2023/10/28 04:48:28;;;;;;;;;3.00;1.25;;;;;13.35;75.69;99205.50;5059107;28;45332;-70
2023/10/28 04:50:54;;;;;;;;;1.50;0.25;;;;;13.01;75.38;99153.81;5059201;28;45374;-68
2023/10/28 04:53:19;;;;;;;;;4.00;1.67;;;;;13.36;75.59;99215.97;5058763;28;47826;-69
2023/10/28 04:55:45;;;;;;;;;1.75;0.25;;;;;13.34;75.55;99203.84;5057570;28;45311;-68
2023/10/28 04:58:11;;;;;;;;;3.00;0.67;;;;;13.35;75.41;99195.63;5058712;28;45494;-68
2023/10/28 05:00:37;;;;;;;;;0.75;0.75;;;;;13.43;75.51;99199.19;5058996;28;45563;-69
2023/10/28 05:03:04;;;;;;;;;0.75;0.00;;;;;13.43;75.07;99201.84;5058641;28;45582;-68
2023/10/28 05:05:29;;;;;;;;;1.25;1.25;;;;;13.39;75.18;99207.56;5058560;28;45354;-69
2023/10/28 05:07:55;;;;;;;;;0.75;0.00;;;;;13.36;75.30;99194.63;5058366;28;51974;-69
2023/10/28 05:10:21;;;;;;;;;2.50;1.25;;;;;13.30;75.26;99183.94;5059070;28;45323;-69
2023/10/28 05:12:46;;;;;;;;;1.75;1.00;;;;;13.39;75.27;99212.06;5058462;28;45785;-69
2023/10/28 05:15:12;;;;;;;;;2.00;1.00;;;;;13.42;75.03;99211.69;5058816;28;45451;-69
2023/10/28 05:17:38;;;;;;;;;2.75;0.00;;;;;13.41;75.17;99199.34;5058964;28;45416;-69
2023/10/28 05:20:06;;;;;;;;;2.00;1.00;;;;;13.41;74.79;99220.72;5058686;28;45483;-68
2023/10/28 05:22:37;;;;;;;;;1.25;0.00;;;;;13.42;74.90;99211.69;5058644;28;46910;-68
2023/10/28 05:25:04;;;;;;;;;0.75;0.50;;;;;13.44;74.56;99216.84;5058480;28;45362;-71
2023/10/28 05:27:31;;;;;;;;;0.75;0.75;;;;;13.47;74.70;99203.09;5058446;28;45544;-68
2023/10/28 05:29:56;;;;;;;;;0.50;0.50;;;;;13.55;74.65;99216.25;5058489;28;45437;-69
2023/10/28 05:32:21;;;;;;;;;0.75;0.75;;;;;13.57;74.38;99211.53;5058154;28;46334;-70
2023/10/28 05:34:47;;;;;;;;;3.00;1.25;;;;;13.58;74.78;99208.66;5057902;28;50831;-69
2023/10/28 05:37:12;;;;;;;;;1.00;1.00;;;;;13.58;74.42;99213.16;5057930;28;45378;-68
2023/10/28 05:39:40;;;;;;;;;2.00;1.00;;;;;13.59;74.69;99218.31;5058042;28;47867;-69
2023/10/28 05:42:11;;;;;;;;;3.00;1.25;;;;;13.08;74.59;99133.31;5057705;28;46570;-69
2023/10/28 05:44:36;;;;;;;;;0.75;0.75;;;;;13.29;74.21;99168.94;5057952;28;45464;-68
2023/10/28 05:47:02;;;;;;;;;2.00;1.25;;;;;13.58;74.56;99216.66;5058251;28;45473;-67
2023/10/28 05:49:27;;;;;;;;;1.00;1.00;;;;;13.56;74.17;99210.69;5058281;28;45326;-69
2023/10/28 05:51:54;;;;;;;;;2.50;1.00;;;;;13.51;74.31;99215.84;5057722;28;46303;-69
2023/10/28 05:54:20;;;;;;;;;4.50;1.00;;;;;13.54;74.02;99225.28;5058045;28;45518;-69
2023/10/28 05:56:45;;;;;;;;;4.00;2.50;;;;;13.19;74.35;99174.63;5057730;28;45385;-70
2023/10/28 05:59:10;;;;;;;;;1.75;1.75;;;;;13.60;74.46;99225.28;5058002;28;45455;-69
2023/10/28 06:01:36;;;;;;;;;1.25;0.50;;;;;13.60;73.94;99230.63;5056513;28;46559;-69
2023/10/28 06:04:02;;;;;;;;;6.75;1.75;;;;;13.59;74.43;99229.00;5057510;28;45456;-69
2023/10/28 06:06:27;;;;;;;;;1.00;0.75;;;;;13.65;74.20;99243.41;5057584;28;45255;-69
2023/10/28 06:08:53;;;;;;;;;2.75;1.00;;;;;13.58;74.10;99232.69;5058008;28;45487;-69
2023/10/28 06:11:19;;;;;;;;;4.00;2.25;;;;;13.45;74.38;99216.63;5057488;28;45624;-69
2023/10/28 06:13:44;;;;;;;;;2.00;1.00;;;;;13.43;74.02;99205.34;5057727;28;45350;-70
2023/10/28 06:16:10;;;;;;;;;1.00;0.00;;;;;13.67;73.79;99236.84;5039552;28;45515;-69
2023/10/28 06:18:36;;;;;;;;;0.25;0.25;;;;;13.63;73.93;99218.75;5057927;28;45336;-71
2023/10/28 06:21:03;;;;;;;;;2.50;0.00;;;;;13.62;73.99;99233.97;5057224;28;47503;-69
2023/10/28 06:23:28;;;;;;;;;2.75;1.75;;;;;13.69;73.81;99242.81;5057313;28;45502;-70
2023/10/28 06:25:54;;;;;;;;;1.00;1.00;;;;;13.70;73.69;99239.09;5057626;28;45320;-68
2023/10/28 06:28:20;;;;;;;;;1.00;1.00;;;;;13.63;73.87;99240.13;5057580;28;45335;-69
2023/10/28 06:30:49;;;;;;;;;6.00;3.25;;;;;13.64;73.89;99236.44;5056663;28;46481;-69
2023/10/28 06:33:15;;;;;;;;;2.00;1.00;;;;;13.64;73.87;99236.44;5057128;28;45477;-68
2023/10/28 06:35:41;;;;;;;;;2.00;2.00;;;;;13.65;73.72;99238.06;5054769;28;45408;-68
2023/10/28 06:38:07;;;;;;;;;1.25;1.25;;;;;13.64;73.94;99237.25;5054029;28;46716;-75
2023/10/28 06:40:33;;;;;;;;;4.00;1.00;;;;;13.68;73.98;99241.16;5056105;28;46572;-69
2023/10/28 06:42:58;;;;;;;;;4.33;4.00;;;;;13.54;73.77;99220.75;5055474;28;45341;-69
2023/10/28 06:45:23;;;;;;;;;3.00;0.50;;;;;13.72;73.73;99259.44;5055221;28;45360;-68
2023/10/28 06:47:50;;;;;;;;;2.50;1.75;;;;;13.35;73.57;99206.31;5055882;28;45826;-69
2023/10/28 06:50:19;;;;;;;;;0.75;0.75;;;;;13.58;73.55;99250.56;5056247;28;46904;-69
2023/10/28 06:52:45;;;;;;;;;3.50;1.50;;;;;13.22;73.59;99184.09;5038397;28;45351;-69
2023/10/28 06:55:12;;;;;;;;;2.00;1.00;;;;;13.36;73.52;99207.97;5056786;28;45373;-69
2023/10/28 06:57:38;;;;;;;;;2.25;1.00;;;;;13.75;73.70;99259.88;5055629;28;45581;-69
2023/10/28 07:00:05;;;;;;;;;2.00;0.67;;;;;13.72;73.37;99262.94;5056225;28;45711;-69
2023/10/28 07:02:30;;;;;;;;;1.67;1.00;;;;;13.70;73.26;99241.78;5055658;28;45251;-69
2023/10/28 07:04:55;;;;;;;;;3.00;3.00;;;;;13.80;72.87;99268.09;5056742;28;45526;-69
2023/10/28 07:07:21;;;;;;;;;2.25;0.25;;;;;13.80;73.43;99261.94;5057458;28;45432;-68
2023/10/28 07:09:46;;;;;;;;;3.75;1.50;;;;;13.80;73.09;99272.63;5056831;28;46546;-69
2023/10/28 07:12:12;;;;;;;;;2.00;0.00;;;;;13.77;73.32;99257.00;5056515;28;45337;-70
2023/10/28 07:14:37;;;;;;;;;1.00;1.00;;;;;13.85;73.54;99275.53;5038733;28;45380;-68
2023/10/28 07:17:03;;;;;;;;;2.00;1.25;;;;;13.61;73.45;99242.13;5056874;28;45555;-68
2023/10/28 07:19:28;;;;;;;;;0.25;0.25;;;;;13.85;73.48;99271.00;5059873;28;46528;-68
2023/10/28 07:21:53;;;;;;;;;2.00;2.00;;;;;13.82;73.33;99270.59;5060310;28;45486;-68
2023/10/28 07:24:19;;;;;;;;;1.00;1.00;;;;;13.89;73.68;99276.78;5060315;28;45669;-68
2023/10/28 07:26:45;;;;;;;;;2.25;1.25;;;;;13.88;73.58;99281.28;5060370;28;45253;-69
2023/10/28 07:29:10;;;;;;;;;0.00;0.00;;;;;13.82;73.90;99281.28;5060013;28;46506;-68
2023/10/28 07:31:38;;;;;;;;;0.75;0.75;;;;;13.83;73.58;99283.75;5059928;28;45398;-69
2023/10/28 07:34:05;;;;;;;;;3.00;2.00;;;;;13.85;73.79;99288.88;5060301;28;45375;-68
2023/10/28 07:36:32;;;;;;;;;0.75;0.75;;;;;13.90;73.60;99292.59;5041812;28;45609;-69
2023/10/28 07:39:00;;;;;;;;;3.50;1.00;;;;;13.91;73.52;99301.44;5059368;28;47629;-70
2023/10/28 07:41:26;;;;;;;;;1.25;0.75;;;;;13.78;73.71;99286.16;5054833;28;45614;-69
2023/10/28 07:43:51;;;;;;;;;3.00;1.00;;;;;13.92;73.33;99313.75;5056149;28;45472;-69
2023/10/28 07:46:17;;;;;;;;;1.00;1.00;;;;;13.98;73.65;99315.63;5058660;28;45403;-70
2023/10/28 07:48:42;;;;;;;;;1.75;1.75;;;;;14.03;73.38;99318.53;5059682;28;47429;-69
2023/10/28 07:51:07;;;;;;;;;1.00;1.00;;;;;13.66;73.37;99266.44;5059469;28;45448;-71
2023/10/28 07:53:33;;;;;;;;;3.50;2.50;;;;;14.02;73.42;99330.25;5060028;28;45482;-69
2023/10/28 07:55:58;;;;;;;;;1.75;1.00;;;;;14.03;73.35;99320.38;5059459;28;45384;-69
2023/10/28 07:58:23;;;;;;;;;2.00;1.00;;;;;14.08;72.95;99334.78;5059098;28;45642;-68
2023/10/28 08:00:51;;;;;;;;;0.75;0.75;;;;;14.05;73.08;99329.84;5059389;28;56705;-68
2023/10/28 08:03:17;;;;;;;;;2.00;1.00;;;;;14.09;73.08;99339.09;5059287;28;45298;-70
2023/10/28 08:05:44;;;;;;;;;1.00;1.00;;;;;14.11;73.02;99342.41;5059818;28;45278;-69
2023/10/28 08:08:09;;;;;;;;;1.25;1.25;;;;;14.15;73.04;99337.47;5058934;28;46555;-69
2023/10/28 08:10:35;;;;;;;;;2.25;1.00;;;;;14.09;73.08;99325.75;5059182;28;45439;-69
2023/10/28 08:13:01;;;;;;;;;4.50;2.75;;;;;14.08;73.00;99334.78;5041137;28;45643;-69
2023/10/28 08:15:29;;;;;;;;;1.00;1.00;;;;;14.12;72.98;99345.91;5059400;28;45371;-69
2023/10/28 08:17:55;;;;;;;;;1.25;1.25;;;;;13.88;73.18;99297.31;5041101;28;46997;-68
2023/10/28 08:20:20;;;;;;;;;2.00;1.00;;;;;14.20;72.94;99338.50;5058989;28;45285;-68
2023/10/28 08:22:47;;;;;;;;;1.00;1.00;;;;;14.15;72.91;99342.81;5059083;28;45370;-70
2023/10/28 08:25:16;;;;;;;;;3.25;2.75;;;;;14.18;73.09;99335.22;5059387;28;45435;-68
2023/10/28 08:27:43;;;;;;;;;2.00;2.00;;;;;14.19;73.39;99336.03;5058410;28;46535;-69
2023/10/28 08:30:08;;;;;;;;;1.50;1.50;;;;;14.12;73.04;99328.00;5057410;28;45362;-69
2023/10/28 08:32:34;;;;;;;;;1.75;1.00;;;;;14.02;73.15;99300.03;5058581;28;45292;-69
2023/10/28 08:35:00;;;;;;;;;1.50;1.00;;;;;14.22;72.87;99330.31;5058796;28;45313;-70
2023/10/28 08:37:25;;;;;;;;;2.50;2.50;;;;;14.24;73.01;99333.59;5058645;28;45477;-69
2023/10/28 08:39:53;;;;;;;;;1.25;1.25;;;;;14.31;72.92;99339.78;5058233;28;47190;-69
2023/10/28 08:42:19;;;;;;;;;0.25;0.00;;;;;13.92;72.92;99263.00;5057857;28;45585;-69
2023/10/28 08:44:48;;;;;;;;;2.50;2.00;;;;;14.16;72.71;99297.19;5058299;28;45418;-70
2023/10/28 08:47:18;;;;;;;;;1.25;1.00;;;;;14.25;72.63;99314.69;5058465;28;46486;-69
2023/10/28 08:49:52;;;;;;;;;1.50;1.00;;;;;14.06;72.69;99275.38;5058355;28;45526;-68
2023/10/28 08:52:25;;;;;;;;;2.50;1.25;;;;;14.31;72.51;99308.53;5057650;28;45332;-70
2023/10/28 08:54:50;;;;;;;;;1.50;0.25;;;;;14.38;72.51;99313.06;5040687;28;45452;-70
2023/10/28 08:57:17;;;;;;;;;2.50;1.50;;;;;14.40;72.53;99301.13;5020384;28;46663;-70
2023/10/28 08:59:42;;;;;;;;;1.50;1.00;;;;;14.50;72.12;99306.13;5058441;28;45462;-69
2023/10/28 09:02:12;;;;;;;;;0.25;0.25;;;;;14.58;72.02;99300.56;5040314;28;45559;-70
2023/10/28 09:04:37;;;;;;;;;1.00;1.00;;;;;14.59;72.06;99299.53;5058562;28;45469;-70
2023/10/28 09:07:04;;;;;;;;;4.75;3.75;;;;;14.53;71.82;99281.63;5056783;28;46399;-68
2023/10/28 09:09:30;;;;;;;;;0.75;0.75;;;;;14.60;71.90;99295.81;5057531;28;45419;-68
2023/10/28 09:11:57;;;;;;;;;1.00;0.00;;;;;14.63;71.64;99291.94;5038812;28;45427;-69
2023/10/28 09:14:23;;;;;;;;;3.00;0.50;;;;;14.66;71.98;99291.53;5037507;28;45649;-69
2023/10/28 09:16:49;;;;;;;;;0.00;0.00;;;;;14.68;71.70;99286.78;5057620;28;46058;-71
2023/10/28 09:19:21;;;;;;;;;0.00;0.00;;;;;14.62;71.56;99277.75;5057234;28;45409;-69
2023/10/28 09:21:51;;;;;;;;;1.00;1.00;;;;;14.73;71.13;99290.47;5057476;28;45670;-70
2023/10/28 09:24:17;;;;;;;;;1.50;1.00;;;;;14.61;71.28;99276.88;5056862;28;45597;-72
2023/10/28 09:26:42;;;;;;;;;2.00;0.00;;;;;14.66;71.18;99273.63;5052404;28;46684;-69
2023/10/28 09:29:08;;;;;;;;;1.25;0.75;;;;;14.41;71.39;99232.44;5035288;28;46504;-70
2023/10/28 09:31:34;;;;;;;;;2.25;1.25;;;;;14.68;71.25;99279.59;5057481;28;45490;-68
2023/10/28 09:34:00;;;;;;;;;0.00;0.00;;;;;14.72;71.04;99282.66;5057720;28;45507;-69
2023/10/28 09:36:28;;;;;;;;;1.00;1.00;;;;;14.39;70.95;99237.97;5057059;28;45572;-68
2023/10/28 09:38:55;;;;;;;;;0.00;0.00;;;;;14.72;71.22;99282.66;5053473;28;45538;-68
2023/10/28 09:41:21;;;;;;;;;0.00;0.00;;;;;14.72;70.95;99278.13;5056700;28;45383;-69
2023/10/28 09:43:47;;;;;;;;;1.25;1.00;;;;;14.64;71.11;99256.13;5057447;28;45349;-69
2023/10/28 09:46:18;;;;;;;;;1.25;0.50;;;;;14.82;70.75;99269.72;5057054;28;45532;-69
2023/10/28 09:48:48;;;;;;;;;2.00;1.00;;;;;14.76;70.65;99268.66;5057064;28;45420;-69
2023/10/28 09:51:20;;;;;;;;;0.00;0.00;;;;;14.88;70.28;99269.69;5057184;28;45357;-69
2023/10/28 09:53:51;;;;;;;;;2.25;0.00;;;;;14.87;70.53;99259.19;5036913;28;45679;-70
2023/10/28 09:56:19;;;;;;;;;1.50;1.00;;;;;14.88;70.24;99245.59;5037547;28;49004;-69
2023/10/28 09:58:51;;;;;;;;;0.00;0.00;;;;;14.97;70.00;99248.06;5056852;28;45453;-71
2023/10/28 10:01:45;;;;;;;;;0.00;0.00;;;;;14.96;70.01;99233.03;5056979;28;45214;-68
2023/10/28 10:04:32;;;;;;;;;1.00;1.00;;;;;15.02;69.75;99265.16;5056174;28;45256;-69
2023/10/28 10:06:58;;;;;;;;;1.00;0.00;;;;;15.04;69.47;99256.91;5056313;28;46376;-70
2023/10/28 10:09:24;;;;;;;;;0.00;0.00;;;;;15.02;69.63;99251.78;5056056;28;45515;-70
2023/10/28 10:11:49;;;;;;;;;0.50;0.00;;;;;15.09;69.43;99257.91;5050870;28;45702;-68
2023/10/28 10:14:15;;;;;;;;;0.50;0.50;;;;;15.09;69.37;99247.22;5046201;28;45374;-71
2023/10/28 10:16:46;;;;;;;;;0.00;0.00;;;;;15.18;69.66;99266.53;5056457;28;46046;-69
2023/10/28 10:19:20;;;;;;;;;1.00;0.50;;;;;15.24;69.20;99270.25;5054453;28;45417;-70
2023/10/28 10:21:52;;;;;;;;;1.00;0.00;;;;;15.24;69.00;99268.41;5055215;28;45468;-69
2023/10/28 10:24:19;;;;;;;;;1.00;0.75;;;;;15.31;68.87;99295.16;5056953;28;45598;-68
2023/10/28 10:26:53;;;;;;;;;0.75;0.75;;;;;15.21;68.75;99277.66;5056218;28;46717;-70
2023/10/28 10:29:19;;;;;;;;;1.00;1.00;;;;;15.37;68.30;99313.03;5038793;28;45680;-69
2023/10/28 10:31:51;;;;;;;;;0.00;0.00;;;;;15.34;68.18;99330.34;5056834;28;45540;-69
2023/10/28 10:34:43;;;;;;;;;0.00;0.00;;;;;15.29;67.77;99308.75;5057151;28;45273;-70
2023/10/28 10:37:20;;;;;;;;;1.50;0.00;;;;;15.25;68.01;99328.13;5055047;28;47505;-69
2023/10/28 10:39:48;;;;;;;;;1.00;1.00;;;;;15.21;67.86;99333.03;5055496;28;45377;-68
2023/10/28 10:42:14;;;;;;;;;0.25;0.25;;;;;15.18;67.88;99328.09;5056156;28;45574;-74
2023/10/28 10:44:40;;;;;;;;;1.00;0.00;;;;;15.17;67.92;99324.63;5056378;28;45467;-68
2023/10/28 10:47:12;;;;;;;;;0.00;0.00;;;;;15.22;67.96;99318.66;5055006;28;46517;-68
2023/10/28 10:49:39;;;;;;;;;0.00;0.00;;;;;15.25;67.96;99320.91;5056435;28;45435;-69
2023/10/28 10:52:05;;;;;;;;;0.00;0.00;;;;;15.29;67.86;99310.59;5055902;28;45515;-73
2023/10/28 10:54:33;;;;;;;;;0.25;0.25;;;;;15.13;67.57;99269.03;5056010;28;45329;-70
2023/10/28 10:56:59;;;;;;;;;0.50;0.00;;;;;15.31;67.16;99284.44;5054718;28;45788;-73
2023/10/28 10:59:28;;;;;;;;;0.75;0.50;;;;;15.22;67.25;99262.44;5054381;28;45438;-68
2023/10/28 11:01:55;;;;;;;;;0.00;0.00;;;;;15.35;67.15;99283.78;5055869;28;45330;-71
2023/10/28 11:04:20;;;;;;;;;2.25;0.75;;;;;15.39;67.21;99290.38;5052814;28;46756;-75
2023/10/28 11:06:45;;;;;;;;;2.00;1.00;;;;;15.43;66.87;99278.22;5054827;28;46589;-70
2023/10/28 11:09:15;;;;;;;;;1.75;1.00;;;;;15.42;66.69;99271.22;5054857;28;45308;-69
2023/10/28 11:11:41;;;;;;;;;0.50;0.50;;;;;15.44;66.55;99279.06;5051669;28;45467;-70
2023/10/28 11:14:06;;;;;;;;;0.00;0.00;;;;;15.45;66.29;99286.88;5056333;28;45535;-69
2023/10/28 11:16:33;;;;;;;;;1.00;1.00;;;;;15.45;66.71;99286.88;5056113;28;45867;-69
2023/10/28 11:19:03;;;;;;;;;0.00;0.00;;;;;15.39;66.46;99276.16;5056214;28;45348;-70
2023/10/28 11:21:30;;;;;;;;;0.75;0.75;;;;;15.43;66.43;99280.91;5038109;28;45552;-69
2023/10/28 11:23:55;;;;;;;;;0.00;0.00;;;;;15.43;66.16;99274.72;5055013;28;46309;-71
2023/10/28 11:26:23;;;;;;;;;1.00;1.00;;;;;15.46;65.86;99272.44;5054032;28;46155;-70
2023/10/28 11:28:48;;;;;;;;;2.25;1.25;;;;;15.45;66.17;99254.72;5055893;28;45591;-68
2023/10/28 11:31:18;;;;;;;;;0.25;0.25;;;;;15.36;65.50;99253.31;5055466;28;45502;-71